createdAt,value
2023-02-02T00:01:20.483Z,97480.41
2023-02-02T00:03:50.897Z,97482.41
2023-02-02T00:06:23.224Z,97477.22
2023-02-02T00:08:51.036Z,97487.00
2023-02-02T00:11:19.004Z,97493.00
2023-02-02T00:13:46.820Z,97490.97
2023-02-02T00:17:01.224Z,97479.25
2023-02-02T00:19:33.480Z,97480.91
2023-02-02T00:22:01.303Z,97476.44
2023-02-02T00:24:29.247Z,97459.34
2023-02-02T00:26:58.561Z,97457.44
2023-02-02T00:29:28.350Z,97456.63
2023-02-02T00:31:56.218Z,97452.84
2023-02-02T00:34:24.021Z,97458.34
2023-02-02T00:36:52.374Z,97449.78
2023-02-02T00:39:21.825Z,97444.31
2023-02-02T00:41:50.546Z,97448.00
2023-02-02T00:44:36.862Z,97446.16
2023-02-02T00:47:04.776Z,97443.59
2023-02-02T00:49:32.452Z,97443.09
2023-02-02T00:52:00.588Z,97442.28
2023-02-02T00:54:28.400Z,97454.03
2023-02-02T00:56:56.163Z,97447.38
2023-02-02T00:59:23.920Z,97441.09
2023-02-02T01:01:51.687Z,97446.34
2023-02-02T01:04:19.376Z,97435.41
2023-02-02T01:06:47.429Z,97428.38
2023-02-02T01:09:15.123Z,97433.31
2023-02-02T01:11:42.945Z,97430.13
2023-02-02T01:14:10.635Z,97430.28
2023-02-02T01:16:38.477Z,97429.25
2023-02-02T01:19:06.259Z,97423.25
2023-02-02T01:21:34.047Z,97422.06
2023-02-02T01:24:01.711Z,97426.03
2023-02-02T01:26:29.490Z,97414.13
2023-02-02T01:28:57.242Z,97423.78
2023-02-02T01:31:25.452Z,97420.34
2023-02-02T01:33:53.168Z,97416.00
2023-02-02T01:36:22.155Z,97421.53
2023-02-02T01:38:51.006Z,97406.84
2023-02-02T01:41:23.573Z,97405.06
2023-02-02T01:43:56.794Z,97408.66
2023-02-02T01:46:25.797Z,97404.22
2023-02-02T01:49:04.023Z,97403.88
2023-02-02T01:51:56.085Z,97411.69
2023-02-02T01:54:33.155Z,97408.56
2023-02-02T01:57:17.076Z,97409.69
2023-02-02T01:59:44.829Z,97416.72
2023-02-02T02:02:12.560Z,97418.13
2023-02-02T02:04:40.410Z,97415.50
2023-02-02T02:07:08.219Z,97424.56
2023-02-02T02:09:37.032Z,97420.97
2023-02-02T02:12:13.421Z,97421.91
2023-02-02T02:15:02.653Z,97427.25
2023-02-02T02:17:48.836Z,97419.91
2023-02-02T02:20:53.714Z,97420.13
2023-02-02T02:24:11.434Z,97423.56
2023-02-02T02:26:56.566Z,97420.81
2023-02-02T02:30:18.261Z,97433.94
2023-02-02T02:32:59.713Z,97421.00
2023-02-02T02:35:29.606Z,97413.81
2023-02-02T02:38:19.049Z,97416.72
2023-02-02T02:40:50.025Z,97415.59
2023-02-02T02:43:47.243Z,97426.88
2023-02-02T02:46:14.995Z,97414.91
2023-02-02T02:48:45.730Z,97415.28
2023-02-02T02:51:41.009Z,97411.69
2023-02-02T02:54:10.150Z,97415.34
2023-02-02T02:56:56.751Z,97419.09
2023-02-02T02:59:47.786Z,97418.34
2023-02-02T03:02:40.945Z,97417.75
2023-02-02T03:05:33.657Z,97417.88
2023-02-02T03:08:06.030Z,97420.56
2023-02-02T03:10:33.784Z,97419.06
2023-02-02T03:13:01.606Z,97416.06
2023-02-02T03:15:29.392Z,97423.22
2023-02-02T03:17:57.088Z,97423.69
2023-02-02T03:20:24.822Z,97425.44
2023-02-02T03:22:52.550Z,97422.66
2023-02-02T03:25:20.260Z,97432.09
2023-02-02T03:27:47.918Z,97421.81
2023-02-02T03:30:15.767Z,97418.97
2023-02-02T03:32:44.001Z,97420.31
2023-02-02T03:35:11.736Z,97416.06
2023-02-02T03:37:39.447Z,97412.72
2023-02-02T03:40:08.346Z,97415.53
2023-02-02T03:42:36.054Z,97421.94
2023-02-02T03:45:04.583Z,97421.28
2023-02-02T03:47:32.263Z,97421.25
2023-02-02T03:49:59.989Z,97409.72
2023-02-02T03:52:27.782Z,97412.94
2023-02-02T03:54:55.504Z,97410.56
2023-02-02T03:57:23.180Z,97398.56
2023-02-02T03:59:51.013Z,97409.16
2023-02-02T04:02:18.746Z,97406.38
2023-02-02T04:04:46.529Z,97407.50
2023-02-02T04:07:14.213Z,97410.69
2023-02-02T04:09:41.950Z,97412.06
2023-02-02T04:12:09.638Z,97410.44
2023-02-02T04:14:37.335Z,97413.69
2023-02-02T04:17:04.989Z,97418.59
2023-02-02T04:19:32.717Z,97423.53
2023-02-02T04:22:00.412Z,97423.50
2023-02-02T04:24:28.157Z,97432.44
2023-02-02T04:26:55.928Z,97429.56
2023-02-02T04:29:23.775Z,97441.31
2023-02-02T04:31:51.469Z,97437.03
2023-02-02T04:34:19.216Z,97438.00
2023-02-02T04:36:47.072Z,97451.31
2023-02-02T04:39:14.803Z,97441.63
2023-02-02T04:41:42.501Z,97445.78
2023-02-02T04:44:15.399Z,97444.34
2023-02-02T04:46:43.602Z,97446.72
2023-02-02T04:49:11.833Z,97447.81
2023-02-02T04:51:39.860Z,97453.22
2023-02-02T04:54:07.574Z,97443.22
2023-02-02T04:56:35.411Z,97452.44
2023-02-02T04:59:03.106Z,97442.94
2023-02-02T05:01:31.075Z,97449.06
2023-02-02T05:03:58.897Z,97448.94
2023-02-02T05:06:26.660Z,97450.88
2023-02-02T05:08:54.367Z,97448.94
2023-02-02T05:11:22.699Z,97462.06
2023-02-02T05:13:52.259Z,97454.63
2023-02-02T05:16:20.196Z,97461.53
2023-02-02T05:18:55.331Z,97455.94
2023-02-02T05:21:23.158Z,97461.50
2023-02-02T05:23:50.832Z,97458.00
2023-02-02T05:26:21.347Z,97464.22
2023-02-02T05:28:49.165Z,97459.75
2023-02-02T05:31:17.110Z,97469.91
2023-02-02T05:33:44.977Z,97473.03
2023-02-02T05:36:12.695Z,97472.63
2023-02-02T05:38:40.390Z,97470.22
2023-02-02T05:41:08.220Z,97470.81
2023-02-02T05:43:35.957Z,97475.63
2023-02-02T05:46:03.858Z,97474.50
2023-02-02T05:48:31.622Z,97485.16
2023-02-02T05:51:03.412Z,97488.06
2023-02-02T05:53:31.252Z,97499.16
2023-02-02T05:55:59.112Z,97483.59
2023-02-02T05:58:27.958Z,97496.31
2023-02-02T06:00:56.795Z,97487.38
2023-02-02T06:03:24.837Z,97486.75
2023-02-02T06:05:52.697Z,97482.00
2023-02-02T06:08:20.394Z,97484.69
2023-02-02T06:10:48.218Z,97485.19
2023-02-02T06:13:15.879Z,97484.66
2023-02-02T06:15:43.720Z,97484.34
2023-02-02T06:18:11.414Z,97499.50
2023-02-02T06:20:39.166Z,97501.97
2023-02-02T06:23:06.884Z,97497.41
2023-02-02T06:25:34.629Z,97504.56
2023-02-02T06:28:02.328Z,97500.03
2023-02-02T06:30:30.036Z,97497.25
2023-02-02T06:32:59.309Z,97485.09
2023-02-02T06:35:27.479Z,97505.72
2023-02-02T06:37:55.275Z,97496.50
2023-02-02T06:40:23.056Z,97504.97
2023-02-02T06:42:57.039Z,97509.88
2023-02-02T06:45:25.511Z,97506.28
2023-02-02T06:47:53.457Z,97517.59
2023-02-02T06:50:21.166Z,97522.81
2023-02-02T06:52:49.700Z,97520.41
2023-02-02T06:55:17.630Z,97514.09
2023-02-02T06:57:46.031Z,97520.84
2023-02-02T07:00:14.413Z,97510.44
2023-02-02T07:02:45.666Z,97505.16
2023-02-02T07:05:13.499Z,97520.72
2023-02-02T07:07:41.210Z,97517.63
2023-02-02T07:10:09.210Z,97513.22
2023-02-02T07:12:57.049Z,97512.47
2023-02-02T07:15:25.002Z,97504.22
2023-02-02T07:17:54.672Z,97503.47
2023-02-02T07:20:22.553Z,97509.50
2023-02-02T07:22:50.382Z,97510.50
2023-02-02T07:25:18.230Z,97498.84
2023-02-02T07:27:47.902Z,97506.50
2023-02-02T07:30:18.805Z,97516.00
2023-02-02T07:32:49.684Z,97505.34
2023-02-02T07:35:17.565Z,97496.81
2023-02-02T07:37:45.236Z,97494.28
2023-02-02T07:40:13.340Z,97501.16
2023-02-02T07:42:41.043Z,97500.31
2023-02-02T07:45:25.572Z,97487.97
2023-02-02T07:47:57.330Z,97488.38
2023-02-02T07:50:25.456Z,97488.28
2023-02-02T07:52:53.311Z,97474.00
2023-02-02T07:55:21.092Z,97478.09
2023-02-02T07:57:48.821Z,97462.81
2023-02-02T08:00:16.986Z,97474.94
2023-02-02T08:02:44.724Z,97474.31
2023-02-02T08:05:12.486Z,97472.63
2023-02-02T08:07:40.205Z,97462.50
2023-02-02T08:10:08.426Z,97455.19
2023-02-02T08:12:36.133Z,97455.53
2023-02-02T08:15:04.198Z,97437.09
2023-02-02T08:17:31.888Z,97437.25
2023-02-02T08:19:59.850Z,97439.97
2023-02-02T08:22:27.576Z,97442.00
2023-02-02T08:24:55.299Z,97435.50
2023-02-02T08:27:22.952Z,97422.31
2023-02-02T08:29:50.686Z,97426.22
2023-02-02T08:32:18.364Z,97438.06
2023-02-02T08:34:48.753Z,97433.97
2023-02-02T08:37:16.426Z,97427.59
2023-02-02T08:39:44.334Z,97433.84
2023-02-02T08:42:12.119Z,97430.66
2023-02-02T08:45:00.859Z,97434.78
2023-02-02T08:47:30.056Z,97439.16
2023-02-02T08:49:57.930Z,97444.53
2023-02-02T08:52:25.979Z,97437.81
2023-02-02T08:54:53.828Z,97439.50
2023-02-02T08:57:21.517Z,97426.69
2023-02-02T08:59:49.274Z,97424.38
2023-02-02T09:02:18.010Z,97425.25
2023-02-02T09:04:47.017Z,97433.34
2023-02-02T09:07:14.785Z,97433.78
2023-02-02T09:09:42.443Z,97431.47
2023-02-02T09:12:10.183Z,97441.03
2023-02-02T09:14:37.863Z,97439.19
2023-02-02T09:17:05.590Z,97444.50
2023-02-02T09:19:33.244Z,97443.81
2023-02-02T09:22:01.007Z,97439.59
2023-02-02T09:24:28.751Z,97423.88
2023-02-02T09:26:56.571Z,97421.19
2023-02-02T09:29:24.286Z,97411.41
2023-02-02T09:31:52.102Z,97420.59
2023-02-02T09:34:19.775Z,97409.03
2023-02-02T09:36:47.761Z,97409.88
2023-02-02T09:39:16.707Z,97414.19
2023-02-02T09:42:06.179Z,97402.75
2023-02-02T09:44:46.010Z,97392.59
2023-02-02T09:47:19.865Z,97393.00
2023-02-02T09:49:58.901Z,97399.66
2023-02-02T09:52:45.310Z,97391.47
2023-02-02T09:55:35.515Z,97375.22
2023-02-02T09:58:30.477Z,97374.88
2023-02-02T10:01:09.646Z,97369.81
2023-02-02T10:03:38.165Z,97367.09
2023-02-02T10:06:26.049Z,97369.47
2023-02-02T10:09:03.865Z,97369.34
2023-02-02T10:11:36.826Z,97364.63
2023-02-02T10:14:39.778Z,97352.94
2023-02-02T10:17:34.269Z,97356.44
2023-02-02T10:20:37.343Z,97368.19
2023-02-02T10:23:31.643Z,97362.25
2023-02-02T10:26:05.323Z,97350.22
2023-02-02T10:29:00.625Z,97344.03
2023-02-02T10:31:36.867Z,97336.34
2023-02-02T10:34:28.396Z,97334.03
2023-02-02T10:37:02.001Z,97325.25
2023-02-02T10:39:41.568Z,97324.25
2023-02-02T10:43:06.426Z,97328.41
2023-02-02T10:45:34.146Z,97330.69
2023-02-02T10:48:01.923Z,97332.59
2023-02-02T10:50:29.802Z,97325.47
2023-02-02T10:53:00.948Z,97339.50
2023-02-02T10:55:39.207Z,97336.25
2023-02-02T10:58:06.865Z,97325.78
2023-02-02T11:00:42.770Z,97319.88
2023-02-02T11:03:10.740Z,97323.09
2023-02-02T11:05:57.101Z,97320.50
2023-02-02T11:08:30.853Z,97325.91
2023-02-02T11:10:58.810Z,97321.38
2023-02-02T11:13:31.470Z,97327.44
2023-02-02T11:16:14.480Z,97321.94
2023-02-02T11:18:44.186Z,97306.84
2023-02-02T11:21:26.904Z,97299.72
2023-02-02T11:24:05.899Z,97300.13
2023-02-02T11:26:56.875Z,97298.78
2023-02-02T11:29:29.003Z,97297.78
2023-02-02T11:31:57.050Z,97297.34
2023-02-02T11:34:26.382Z,97290.75
2023-02-02T11:37:26.428Z,97307.50
2023-02-02T11:39:54.212Z,97306.50
2023-02-02T11:42:24.765Z,97314.53
2023-02-02T11:44:57.320Z,97311.41
2023-02-02T11:47:32.889Z,97293.31
2023-02-02T11:50:01.574Z,97285.34
2023-02-02T11:52:32.508Z,97284.25
2023-02-02T11:55:02.294Z,97265.84
2023-02-02T11:57:30.636Z,97262.91
2023-02-02T12:00:10.542Z,97265.06
2023-02-02T12:02:38.523Z,97260.19
2023-02-02T12:05:13.971Z,97260.94
2023-02-02T12:07:42.784Z,97257.38
2023-02-02T12:10:25.466Z,97249.81
2023-02-02T12:13:10.612Z,97248.94
2023-02-02T12:15:47.508Z,97242.47
2023-02-02T12:18:41.533Z,97238.22
2023-02-02T12:21:18.174Z,97231.59
2023-02-02T12:24:23.381Z,97216.41
2023-02-02T12:26:57.519Z,97225.38
2023-02-02T12:29:40.022Z,97217.97
2023-02-02T12:32:19.721Z,97212.91
2023-02-02T12:35:21.459Z,97212.50
2023-02-02T12:37:58.224Z,97208.31
2023-02-02T12:40:44.739Z,97205.94
2023-02-02T12:43:24.893Z,97203.72
2023-02-02T12:46:05.254Z,97201.78
2023-02-02T12:48:39.169Z,97210.78
2023-02-02T12:51:36.021Z,97288.53
2023-02-02T12:54:33.815Z,97258.16
2023-02-02T12:57:16.928Z,97304.03
2023-02-02T12:59:50.767Z,97299.81
2023-02-02T13:02:41.184Z,97288.22
2023-02-02T13:05:20.514Z,97271.94
2023-02-02T13:08:52.010Z,97291.78
2023-02-02T13:11:32.707Z,97308.47
2023-02-02T13:14:23.147Z,97289.34
2023-02-02T13:16:53.390Z,97317.25
2023-02-02T13:19:29.340Z,97309.47
2023-02-02T13:21:57.943Z,97334.50
2023-02-02T13:24:32.031Z,97342.41
2023-02-02T13:27:01.280Z,97328.47
2023-02-02T13:29:47.671Z,97347.56
2023-02-02T13:32:26.994Z,97363.84
2023-02-02T13:35:05.403Z,97359.97
2023-02-02T13:37:49.795Z,97379.50
2023-02-02T13:40:34.354Z,97395.53
2023-02-02T13:43:05.423Z,97390.53
2023-02-02T13:45:48.576Z,97399.47
2023-02-02T13:48:19.123Z,97388.22
2023-02-02T13:51:18.084Z,97397.97
2023-02-02T13:54:04.711Z,97415.41
2023-02-02T13:56:58.239Z,97428.53
2023-02-02T13:59:53.987Z,97415.38
2023-02-02T14:02:32.650Z,97408.47
2023-02-02T14:05:04.605Z,97405.72
2023-02-02T14:07:41.941Z,97418.47
2023-02-02T14:10:49.155Z,97422.31
2023-02-02T14:13:47.880Z,97433.34
2023-02-02T14:16:42.945Z,97431.59
2023-02-02T14:19:33.738Z,97430.72
2023-02-02T14:22:11.905Z,97417.88
2023-02-02T14:24:50.058Z,97415.78
2023-02-02T14:27:18.426Z,97404.16
2023-02-02T14:29:47.004Z,97409.22
2023-02-02T14:32:24.018Z,97408.28
2023-02-02T14:34:53.652Z,97393.00
2023-02-02T14:37:24.335Z,97394.47
2023-02-02T14:40:04.420Z,97404.38
2023-02-02T14:43:25.054Z,97416.06
2023-02-02T14:46:14.572Z,97430.75
2023-02-02T14:49:13.526Z,97442.03
2023-02-02T14:51:49.736Z,97446.66
2023-02-02T14:54:29.442Z,97435.88
2023-02-02T14:56:59.370Z,97443.81
2023-02-02T14:59:32.326Z,97440.09
2023-02-02T15:02:22.154Z,97438.72
2023-02-02T15:04:50.061Z,97445.66
2023-02-02T15:07:23.838Z,97435.72
2023-02-02T15:09:56.674Z,97442.03
2023-02-02T15:12:34.140Z,97442.09
2023-02-02T15:15:25.433Z,97453.19
2023-02-02T15:18:33.636Z,97466.47
2023-02-02T15:21:01.590Z,97465.53
2023-02-02T15:23:31.973Z,97464.47
2023-02-02T15:26:07.189Z,97460.94
2023-02-02T15:28:42.223Z,97464.06
2023-02-02T15:31:28.162Z,97470.44
2023-02-02T15:33:58.895Z,97470.13
2023-02-02T15:36:33.865Z,97472.59
2023-02-02T15:39:03.046Z,97437.22
2023-02-02T15:41:33.088Z,97427.66
2023-02-02T15:44:01.117Z,97455.28
2023-02-02T15:46:32.624Z,97451.84
2023-02-02T15:49:32.607Z,97467.81
2023-02-02T15:52:04.578Z,97479.56
2023-02-02T15:54:33.346Z,97485.69
2023-02-02T15:57:01.614Z,97485.81
2023-02-02T15:59:37.417Z,97477.47
2023-02-02T16:02:11.646Z,97466.34
2023-02-02T16:04:40.981Z,97459.63
2023-02-02T16:07:32.127Z,97472.19
2023-02-02T16:10:16.868Z,97463.84
2023-02-02T16:12:44.575Z,97453.06
2023-02-02T16:15:20.052Z,97457.81
2023-02-02T16:17:58.180Z,97471.69
2023-02-02T16:20:26.112Z,97461.91
2023-02-02T16:22:54.833Z,97468.88
2023-02-02T16:25:22.531Z,97474.91
2023-02-02T16:27:51.955Z,97477.00
2023-02-02T16:30:36.618Z,97484.97
2023-02-02T16:33:27.114Z,97476.53
2023-02-02T16:35:54.903Z,97484.72
2023-02-02T16:38:26.486Z,97473.22
2023-02-02T16:41:34.131Z,97480.28
2023-02-02T16:44:30.764Z,97486.19
2023-02-02T16:46:58.717Z,97488.66
2023-02-02T16:49:26.752Z,97504.25
2023-02-02T16:52:18.016Z,97511.78
2023-02-02T16:54:51.580Z,97517.06
2023-02-02T16:57:33.109Z,97509.66
2023-02-02T17:00:06.634Z,97504.91
2023-02-02T17:02:39.185Z,97503.53
2023-02-02T17:05:24.906Z,97504.31
2023-02-02T17:08:07.944Z,97502.75
2023-02-02T17:10:42.523Z,97528.47
2023-02-02T17:13:32.472Z,97537.03
2023-02-02T17:16:00.314Z,97546.69
2023-02-02T17:18:28.085Z,97555.00
2023-02-02T17:20:57.833Z,97552.91
2023-02-02T17:23:26.743Z,97559.16
2023-02-02T17:25:54.508Z,97554.38
2023-02-02T17:28:24.091Z,97543.31
2023-02-02T17:30:59.295Z,97547.59
2023-02-02T17:33:27.271Z,97554.00
2023-02-02T17:35:56.459Z,97572.63
2023-02-02T17:38:24.728Z,97580.69
2023-02-02T17:40:52.643Z,97572.41
2023-02-02T17:43:20.411Z,97571.63
2023-02-02T17:45:48.154Z,97574.34
2023-02-02T17:48:15.995Z,97565.88
2023-02-02T17:50:43.984Z,97566.47
2023-02-02T17:53:15.948Z,97559.34
2023-02-02T17:55:44.307Z,97566.22
2023-02-02T17:58:14.455Z,97568.47
2023-02-02T18:00:42.184Z,97581.72
2023-02-02T18:03:21.006Z,97592.09
2023-02-02T18:05:48.844Z,97592.28
2023-02-02T18:08:16.558Z,97586.94
2023-02-02T18:10:44.458Z,97580.94
2023-02-02T18:13:15.012Z,97583.53
2023-02-02T18:15:43.315Z,97580.31
2023-02-02T18:18:14.434Z,97589.31
2023-02-02T18:20:43.187Z,97577.59
2023-02-02T18:23:11.275Z,97586.03
2023-02-02T18:25:39.572Z,97576.94
2023-02-02T18:28:08.073Z,97582.28
2023-02-02T18:30:38.315Z,97587.63
2023-02-02T18:33:08.660Z,97592.69
2023-02-02T18:35:40.802Z,97581.09
2023-02-02T18:38:08.968Z,97586.63
2023-02-02T18:40:37.000Z,97590.25
2023-02-02T18:43:04.812Z,97594.78
2023-02-02T18:45:32.650Z,97588.25
2023-02-02T18:48:00.473Z,97591.69
2023-02-02T18:50:28.247Z,97611.72
2023-02-02T18:52:56.911Z,97618.97
2023-02-02T18:55:25.178Z,97617.16
2023-02-02T18:57:53.320Z,97624.75
2023-02-02T19:00:22.157Z,97623.88
2023-02-02T19:02:49.988Z,97629.72
2023-02-02T19:05:36.707Z,97627.59
2023-02-02T19:08:05.860Z,97621.06
2023-02-02T19:10:33.761Z,97630.44
2023-02-02T19:13:21.717Z,97627.53
2023-02-02T19:15:49.808Z,97637.13
2023-02-02T19:18:19.953Z,97637.94
2023-02-02T19:20:47.970Z,97629.94
2023-02-02T19:23:24.857Z,97630.78
2023-02-02T19:25:56.330Z,97623.09
2023-02-02T19:28:25.997Z,97627.53
2023-02-02T19:30:55.047Z,97623.19
2023-02-02T19:33:33.471Z,97619.06
2023-02-02T19:36:01.258Z,97630.56
2023-02-02T19:38:29.487Z,97635.03
2023-02-02T19:40:57.208Z,97636.50
2023-02-02T19:43:28.861Z,97644.50
2023-02-02T19:45:57.858Z,97649.25
2023-02-02T19:48:27.214Z,97651.91
2023-02-02T19:50:55.821Z,97650.09
2023-02-02T19:53:37.614Z,97650.44
2023-02-02T19:56:23.585Z,97659.41
2023-02-02T19:58:51.435Z,97651.16
2023-02-02T20:01:20.413Z,97659.22
2023-02-02T20:03:48.219Z,97665.72
2023-02-02T20:06:26.829Z,97668.31
2023-02-02T20:08:54.600Z,97664.94
2023-02-02T20:11:37.039Z,97672.53
2023-02-02T20:14:25.351Z,97658.22
2023-02-02T20:16:56.399Z,97651.59
2023-02-02T20:19:25.389Z,97646.03
2023-02-02T20:21:53.305Z,97642.38
2023-02-02T20:24:25.429Z,97651.38
2023-02-02T20:26:54.525Z,97660.25
2023-02-02T20:29:39.636Z,97654.72
2023-02-02T20:32:15.320Z,97653.00
2023-02-02T20:34:43.051Z,97652.28
2023-02-02T20:37:13.715Z,97652.22
2023-02-02T20:39:56.200Z,97640.63
2023-02-02T20:42:24.047Z,97653.03
2023-02-02T20:44:51.808Z,97656.56
2023-02-02T20:47:19.983Z,97667.34
2023-02-02T20:49:47.819Z,97655.44
2023-02-02T20:52:23.163Z,97654.91
2023-02-02T20:54:51.506Z,97662.41
2023-02-02T20:57:19.216Z,97654.53
2023-02-02T20:59:46.910Z,97653.78
2023-02-02T21:02:19.670Z,97656.84
2023-02-02T21:04:47.818Z,97650.31
2023-02-02T21:07:17.080Z,97647.94
2023-02-02T21:09:45.449Z,97637.00
2023-02-02T21:12:13.171Z,97631.81
2023-02-02T21:14:41.010Z,97642.59
2023-02-02T21:17:15.222Z,97641.38
2023-02-02T21:19:46.850Z,97633.84
2023-02-02T21:22:14.715Z,97619.97
2023-02-02T21:24:42.686Z,97617.88
2023-02-02T21:27:10.592Z,97632.47
2023-02-02T21:29:38.514Z,97625.88
2023-02-02T21:32:06.413Z,97628.56
2023-02-02T21:34:35.104Z,97617.28
2023-02-02T21:37:02.857Z,97621.09
2023-02-02T21:39:37.071Z,97622.03
2023-02-02T21:42:07.531Z,97628.19
2023-02-02T21:44:40.097Z,97639.97
2023-02-02T21:47:19.997Z,97662.84
2023-02-02T21:49:47.723Z,97652.25
2023-02-02T21:52:16.835Z,97657.56
2023-02-02T21:54:44.618Z,97660.34
2023-02-02T21:57:17.009Z,97664.94
2023-02-02T21:59:46.743Z,97663.22
2023-02-02T22:02:39.383Z,97674.84
2023-02-02T22:05:24.834Z,97673.06
2023-02-02T22:07:53.447Z,97676.44
2023-02-02T22:10:38.127Z,97670.25
2023-02-02T22:13:23.272Z,97668.00
2023-02-02T22:15:51.785Z,97657.50
2023-02-02T22:18:19.499Z,97658.78
2023-02-02T22:20:48.787Z,97668.00
2023-02-02T22:23:18.250Z,97682.94
2023-02-02T22:25:46.916Z,97669.22
2023-02-02T22:28:18.268Z,97664.31
2023-02-02T22:30:46.223Z,97655.56
2023-02-02T22:33:13.956Z,97647.31
2023-02-02T22:35:42.080Z,97636.22
2023-02-02T22:38:10.230Z,97645.53
2023-02-02T22:40:38.072Z,97639.03
2023-02-02T22:43:06.134Z,97632.66
2023-02-02T22:45:34.119Z,97623.91
2023-02-02T22:48:01.891Z,97613.63
2023-02-02T22:50:30.419Z,97611.69
2023-02-02T22:52:58.214Z,97614.38
2023-02-02T22:55:25.943Z,97619.00
2023-02-02T22:57:53.723Z,97620.28
2023-02-02T23:00:26.311Z,97617.13
2023-02-02T23:02:54.682Z,97614.56
2023-02-02T23:05:23.211Z,97647.63
2023-02-02T23:07:51.023Z,97630.78
2023-02-02T23:10:21.264Z,97622.53
2023-02-02T23:12:49.044Z,97610.91
2023-02-02T23:15:16.871Z,97626.13
2023-02-02T23:17:44.600Z,97635.72
2023-02-02T23:20:13.142Z,97603.38
2023-02-02T23:22:40.873Z,97629.84
2023-02-02T23:25:08.892Z,97623.63
2023-02-02T23:27:36.666Z,97631.72
2023-02-02T23:30:04.852Z,97630.47
2023-02-02T23:32:32.556Z,97628.88
2023-02-02T23:35:00.214Z,97625.38
2023-02-02T23:37:27.961Z,97635.53
2023-02-02T23:39:55.666Z,97634.94
2023-02-02T23:42:23.421Z,97631.31
2023-02-02T23:44:51.736Z,97642.94
2023-02-02T23:47:19.512Z,97633.06
2023-02-02T23:49:47.189Z,97633.91
2023-02-02T23:52:14.966Z,97656.53
2023-02-02T23:54:42.931Z,97642.22
2023-02-02T23:57:10.716Z,97646.47
2023-02-02T23:59:38.430Z,97639.34
